sensor_id;sensor_type;location;lat;lon;timestamp;P1;durP1;ratioP1;P2;durP2;ratioP2
62740;SDS011;48790;55.656;37.702;2022-10-15T00:01:57;20.40;;;9.68;;
62740;SDS011;48790;55.656;37.702;2022-10-15T00:04:24;26.17;;;10.02;;
62740;SDS011;48790;55.656;37.702;2022-10-15T00:06:50;22.45;;;9.80;;
62740;SDS011;48790;55.656;37.702;2022-10-15T00:09:16;24.08;;;9.70;;
62740;SDS011;48790;55.656;37.702;2022-10-15T00:11:43;27.25;;;10.38;;
62740;SDS011;48790;55.656;37.702;2022-10-15T00:14:09;27.10;;;9.38;;
62740;SDS011;48790;55.656;37.702;2022-10-15T00:16:35;23.33;;;9.85;;
62740;SDS011;48790;55.656;37.702;2022-10-15T00:19:03;24.85;;;9.45;;
62740;SDS011;48790;55.656;37.702;2022-10-15T00:21:31;20.95;;;9.27;;
62740;SDS011;48790;55.656;37.702;2022-10-15T00:23:59;19.27;;;8.82;;
62740;SDS011;48790;55.656;37.702;2022-10-15T00:26:26;26.40;;;9.25;;
62740;SDS011;48790;55.656;37.702;2022-10-15T00:28:54;17.42;;;9.45;;
62740;SDS011;48790;55.656;37.702;2022-10-15T00:31:22;24.27;;;10.27;;
62740;SDS011;48790;55.656;37.702;2022-10-15T00:33:53;24.20;;;9.43;;
62740;SDS011;48790;55.656;37.702;2022-10-15T00:36:22;20.77;;;9.27;;
62740;SDS011;48790;55.656;37.702;2022-10-15T00:38:48;26.48;;;10.10;;
62740;SDS011;48790;55.656;37.702;2022-10-15T00:41:16;27.50;;;9.70;;
62740;SDS011;48790;55.656;37.702;2022-10-15T00:43:49;17.25;;;8.95;;
62740;SDS011;48790;55.656;37.702;2022-10-15T00:46:25;20.83;;;9.07;;
62740;SDS011;48790;55.656;37.702;2022-10-15T00:48:53;19.15;;;8.75;;
62740;SDS011;48790;55.656;37.702;2022-10-15T00:51:20;20.13;;;8.90;;
62740;SDS011;48790;55.656;37.702;2022-10-15T00:53:47;21.98;;;8.82;;
62740;SDS011;48790;55.656;37.702;2022-10-15T00:56:15;24.23;;;9.23;;
62740;SDS011;48790;55.656;37.702;2022-10-15T00:58:42;19.70;;;8.48;;
62740;SDS011;48790;55.656;37.702;2022-10-15T01:01:08;21.73;;;9.10;;
62740;SDS011;48790;55.656;37.702;2022-10-15T01:03:36;21.75;;;8.88;;
62740;SDS011;48790;55.656;37.702;2022-10-15T01:06:02;20.77;;;9.25;;
62740;SDS011;48790;55.656;37.702;2022-10-15T01:08:30;24.90;;;8.52;;
62740;SDS011;48790;55.656;37.702;2022-10-15T01:11:08;17.17;;;8.93;;
62740;SDS011;48790;55.656;37.702;2022-10-15T01:16:38;18.63;;;8.80;;
62740;SDS011;48790;55.656;37.702;2022-10-15T01:21:57;34.97;;;8.90;;
62740;SDS011;48790;55.656;37.702;2022-10-15T01:24:40;15.20;;;8.85;;
62740;SDS011;48790;55.656;37.702;2022-10-15T01:38:07;18.50;;;8.55;;
62740;SDS011;48790;55.656;37.702;2022-10-15T01:43:43;16.40;;;8.02;;
62740;SDS011;48790;55.656;37.702;2022-10-15T01:49:11;24.23;;;8.60;;
62740;SDS011;48790;55.656;37.702;2022-10-15T01:51:39;20.60;;;8.52;;
62740;SDS011;48790;55.656;37.702;2022-10-15T01:54:08;19.52;;;8.13;;
62740;SDS011;48790;55.656;37.702;2022-10-15T01:56:36;26.13;;;8.02;;
62740;SDS011;48790;55.656;37.702;2022-10-15T01:59:05;16.10;;;7.88;;
62740;SDS011;48790;55.656;37.702;2022-10-15T02:01:33;15.07;;;7.85;;
62740;SDS011;48790;55.656;37.702;2022-10-15T02:03:59;19.08;;;7.78;;
62740;SDS011;48790;55.656;37.702;2022-10-15T02:06:31;20.42;;;8.93;;
62740;SDS011;48790;55.656;37.702;2022-10-15T02:17:16;13.63;;;6.90;;
62740;SDS011;48790;55.656;37.702;2022-10-15T02:19:51;20.33;;;7.30;;
62740;SDS011;48790;55.656;37.702;2022-10-15T02:22:27;19.77;;;7.70;;
62740;SDS011;48790;55.656;37.702;2022-10-15T02:25:05;16.75;;;7.15;;
62740;SDS011;48790;55.656;37.702;2022-10-15T02:27:34;19.17;;;7.68;;
62740;SDS011;48790;55.656;37.702;2022-10-15T02:30:02;18.42;;;7.13;;
62740;SDS011;48790;55.656;37.702;2022-10-15T02:32:29;15.60;;;8.05;;
62740;SDS011;48790;55.656;37.702;2022-10-15T02:34:56;19.35;;;7.30;;
62740;SDS011;48790;55.656;37.702;2022-10-15T02:37:23;16.25;;;7.57;;
62740;SDS011;48790;55.656;37.702;2022-10-15T02:39:51;23.67;;;8.23;;
62740;SDS011;48790;55.656;37.702;2022-10-15T02:42:17;22.38;;;8.27;;
62740;SDS011;48790;55.656;37.702;2022-10-15T02:44:43;29.95;;;8.10;;
62740;SDS011;48790;55.656;37.702;2022-10-15T02:47:10;21.95;;;8.40;;
62740;SDS011;48790;55.656;37.702;2022-10-15T02:49:38;14.15;;;7.30;;
62740;SDS011;48790;55.656;37.702;2022-10-15T02:52:04;21.30;;;7.70;;
62740;SDS011;48790;55.656;37.702;2022-10-15T02:54:32;20.13;;;7.70;;
62740;SDS011;48790;55.656;37.702;2022-10-15T02:56:59;23.08;;;8.25;;
62740;SDS011;48790;55.656;37.702;2022-10-15T02:59:25;16.42;;;7.22;;
62740;SDS011;48790;55.656;37.702;2022-10-15T03:01:52;13.73;;;6.88;;
62740;SDS011;48790;55.656;37.702;2022-10-15T03:04:19;16.95;;;7.13;;
62740;SDS011;48790;55.656;37.702;2022-10-15T03:06:46;17.13;;;7.50;;
62740;SDS011;48790;55.656;37.702;2022-10-15T03:09:13;18.30;;;7.47;;
62740;SDS011;48790;55.656;37.702;2022-10-15T03:11:39;16.98;;;7.22;;
62740;SDS011;48790;55.656;37.702;2022-10-15T03:14:06;16.90;;;7.18;;
62740;SDS011;48790;55.656;37.702;2022-10-15T03:16:34;18.90;;;7.55;;
62740;SDS011;48790;55.656;37.702;2022-10-15T03:19:00;25.70;;;7.53;;
62740;SDS011;48790;55.656;37.702;2022-10-15T03:21:29;15.50;;;8.60;;
62740;SDS011;48790;55.656;37.702;2022-10-15T03:24:02;18.23;;;7.57;;
62740;SDS011;48790;55.656;37.702;2022-10-15T03:26:29;18.73;;;7.28;;
62740;SDS011;48790;55.656;37.702;2022-10-15T03:28:59;24.02;;;7.32;;
62740;SDS011;48790;55.656;37.702;2022-10-15T03:31:54;17.08;;;7.65;;
62740;SDS011;48790;55.656;37.702;2022-10-15T03:34:22;16.85;;;7.20;;
62740;SDS011;48790;55.656;37.702;2022-10-15T03:36:49;14.00;;;7.35;;
62740;SDS011;48790;55.656;37.702;2022-10-15T03:39:17;16.80;;;7.07;;
62740;SDS011;48790;55.656;37.702;2022-10-15T03:41:43;15.98;;;7.90;;
62740;SDS011;48790;55.656;37.702;2022-10-15T03:44:13;15.93;;;7.68;;
62740;SDS011;48790;55.656;37.702;2022-10-15T03:46:44;18.10;;;7.68;;
62740;SDS011;48790;55.656;37.702;2022-10-15T03:49:10;24.17;;;7.68;;
62740;SDS011;48790;55.656;37.702;2022-10-15T03:51:36;23.05;;;8.50;;
62740;SDS011;48790;55.656;37.702;2022-10-15T03:54:08;20.70;;;8.30;;
62740;SDS011;48790;55.656;37.702;2022-10-15T03:56:42;28.02;;;8.57;;
62740;SDS011;48790;55.656;37.702;2022-10-15T03:59:24;17.73;;;7.57;;
62740;SDS011;48790;55.656;37.702;2022-10-15T04:01:57;18.92;;;7.43;;
62740;SDS011;48790;55.656;37.702;2022-10-15T04:04:23;18.10;;;7.63;;
62740;SDS011;48790;55.656;37.702;2022-10-15T04:06:51;18.23;;;7.85;;
62740;SDS011;48790;55.656;37.702;2022-10-15T04:09:18;16.17;;;7.38;;
62740;SDS011;48790;55.656;37.702;2022-10-15T04:11:45;20.15;;;8.35;;
62740;SDS011;48790;55.656;37.702;2022-10-15T04:14:12;25.88;;;7.90;;
62740;SDS011;48790;55.656;37.702;2022-10-15T04:16:40;17.42;;;7.55;;
62740;SDS011;48790;55.656;37.702;2022-10-15T04:19:17;15.73;;;6.97;;
62740;SDS011;48790;55.656;37.702;2022-10-15T04:21:51;19.98;;;7.10;;
62740;SDS011;48790;55.656;37.702;2022-10-15T04:24:29;15.05;;;7.88;;
62740;SDS011;48790;55.656;37.702;2022-10-15T04:26:55;16.90;;;7.55;;
62740;SDS011;48790;55.656;37.702;2022-10-15T04:29:21;21.95;;;8.02;;
62740;SDS011;48790;55.656;37.702;2022-10-15T04:31:49;20.58;;;8.00;;
62740;SDS011;48790;55.656;37.702;2022-10-15T04:34:18;20.70;;;7.75;;
62740;SDS011;48790;55.656;37.702;2022-10-15T04:36:45;20.00;;;7.82;;
62740;SDS011;48790;55.656;37.702;2022-10-15T04:39:14;24.75;;;7.57;;
62740;SDS011;48790;55.656;37.702;2022-10-15T04:41:42;19.17;;;7.80;;
62740;SDS011;48790;55.656;37.702;2022-10-15T04:44:14;29.65;;;8.27;;
62740;SDS011;48790;55.656;37.702;2022-10-15T04:46:45;15.68;;;7.65;;
62740;SDS011;48790;55.656;37.702;2022-10-15T04:49:25;17.80;;;7.85;;
62740;SDS011;48790;55.656;37.702;2022-10-15T04:51:51;20.95;;;7.57;;
62740;SDS011;48790;55.656;37.702;2022-10-15T04:54:22;17.80;;;8.57;;
62740;SDS011;48790;55.656;37.702;2022-10-15T04:56:57;16.45;;;8.13;;
62740;SDS011;48790;55.656;37.702;2022-10-15T04:59:23;22.90;;;8.38;;
62740;SDS011;48790;55.656;37.702;2022-10-15T05:02:10;16.48;;;7.70;;
62740;SDS011;48790;55.656;37.702;2022-10-15T05:04:37;18.10;;;8.05;;
62740;SDS011;48790;55.656;37.702;2022-10-15T05:07:06;25.10;;;9.43;;
62740;SDS011;48790;55.656;37.702;2022-10-15T05:09:32;15.52;;;8.57;;
62740;SDS011;48790;55.656;37.702;2022-10-15T05:11:58;17.88;;;7.97;;
62740;SDS011;48790;55.656;37.702;2022-10-15T05:14:26;24.00;;;8.35;;
62740;SDS011;48790;55.656;37.702;2022-10-15T05:17:10;15.60;;;7.97;;
62740;SDS011;48790;55.656;37.702;2022-10-15T05:19:39;17.48;;;8.38;;
62740;SDS011;48790;55.656;37.702;2022-10-15T05:22:09;16.08;;;8.77;;
62740;SDS011;48790;55.656;37.702;2022-10-15T05:24:41;26.80;;;8.13;;
62740;SDS011;48790;55.656;37.702;2022-10-15T05:27:18;24.35;;;8.60;;
62740;SDS011;48790;55.656;37.702;2022-10-15T05:29:44;14.98;;;8.10;;
62740;SDS011;48790;55.656;37.702;2022-10-15T05:32:14;13.85;;;8.50;;
62740;SDS011;48790;55.656;37.702;2022-10-15T05:34:40;19.55;;;7.82;;
62740;SDS011;48790;55.656;37.702;2022-10-15T05:37:12;17.80;;;7.32;;
62740;SDS011;48790;55.656;37.702;2022-10-15T05:39:39;18.95;;;8.48;;
62740;SDS011;48790;55.656;37.702;2022-10-15T05:42:05;23.75;;;8.40;;
62740;SDS011;48790;55.656;37.702;2022-10-15T05:44:38;18.73;;;8.07;;
62740;SDS011;48790;55.656;37.702;2022-10-15T05:47:03;19.45;;;7.55;;
62740;SDS011;48790;55.656;37.702;2022-10-15T05:49:31;36.55;;;8.55;;
62740;SDS011;48790;55.656;37.702;2022-10-15T05:52:04;18.58;;;8.30;;
62740;SDS011;48790;55.656;37.702;2022-10-15T05:54:59;25.20;;;8.13;;
62740;SDS011;48790;55.656;37.702;2022-10-15T05:57:25;21.85;;;7.80;;
62740;SDS011;48790;55.656;37.702;2022-10-15T05:59:50;38.45;;;9.10;;
62740;SDS011;48790;55.656;37.702;2022-10-15T06:02:16;30.73;;;9.07;;
62740;SDS011;48790;55.656;37.702;2022-10-15T06:04:42;28.05;;;9.23;;
62740;SDS011;48790;55.656;37.702;2022-10-15T06:07:09;30.73;;;9.65;;
62740;SDS011;48790;55.656;37.702;2022-10-15T06:09:35;29.50;;;9.05;;
62740;SDS011;48790;55.656;37.702;2022-10-15T06:12:00;25.95;;;9.10;;
62740;SDS011;48790;55.656;37.702;2022-10-15T06:14:26;21.38;;;8.23;;
62740;SDS011;48790;55.656;37.702;2022-10-15T06:16:54;15.27;;;8.15;;
62740;SDS011;48790;55.656;37.702;2022-10-15T06:19:20;26.23;;;8.43;;
62740;SDS011;48790;55.656;37.702;2022-10-15T06:21:46;23.20;;;8.02;;
62740;SDS011;48790;55.656;37.702;2022-10-15T06:24:13;14.38;;;7.47;;
62740;SDS011;48790;55.656;37.702;2022-10-15T06:26:39;21.55;;;7.63;;
62740;SDS011;48790;55.656;37.702;2022-10-15T06:29:06;14.02;;;6.82;;
62740;SDS011;48790;55.656;37.702;2022-10-15T06:31:31;18.77;;;7.57;;
62740;SDS011;48790;55.656;37.702;2022-10-15T06:33:57;21.60;;;8.15;;
62740;SDS011;48790;55.656;37.702;2022-10-15T06:36:23;17.77;;;7.47;;
62740;SDS011;48790;55.656;37.702;2022-10-15T06:38:50;20.33;;;7.47;;
62740;SDS011;48790;55.656;37.702;2022-10-15T06:41:16;19.63;;;8.13;;
62740;SDS011;48790;55.656;37.702;2022-10-15T06:43:42;19.20;;;7.20;;
62740;SDS011;48790;55.656;37.702;2022-10-15T06:46:10;20.92;;;6.85;;
62740;SDS011;48790;55.656;37.702;2022-10-15T06:48:36;20.85;;;6.60;;
62740;SDS011;48790;55.656;37.702;2022-10-15T06:51:02;17.65;;;6.32;;
62740;SDS011;48790;55.656;37.702;2022-10-15T06:53:28;15.90;;;6.18;;
62740;SDS011;48790;55.656;37.702;2022-10-15T06:55:55;18.45;;;6.53;;
62740;SDS011;48790;55.656;37.702;2022-10-15T06:58:21;20.38;;;6.93;;
62740;SDS011;48790;55.656;37.702;2022-10-15T07:00:47;16.27;;;6.70;;
62740;SDS011;48790;55.656;37.702;2022-10-15T07:03:14;17.75;;;6.10;;
62740;SDS011;48790;55.656;37.702;2022-10-15T07:05:39;23.63;;;8.43;;
62740;SDS011;48790;55.656;37.702;2022-10-15T07:08:06;19.15;;;8.23;;
62740;SDS011;48790;55.656;37.702;2022-10-15T07:10:31;19.42;;;8.57;;
62740;SDS011;48790;55.656;37.702;2022-10-15T07:13:01;23.45;;;9.23;;
62740;SDS011;48790;55.656;37.702;2022-10-15T07:15:27;19.30;;;8.77;;
62740;SDS011;48790;55.656;37.702;2022-10-15T07:17:54;19.50;;;8.15;;
62740;SDS011;48790;55.656;37.702;2022-10-15T07:20:27;21.17;;;8.80;;
62740;SDS011;48790;55.656;37.702;2022-10-15T07:22:57;19.27;;;8.13;;
62740;SDS011;48790;55.656;37.702;2022-10-15T07:25:28;18.65;;;8.82;;
62740;SDS011;48790;55.656;37.702;2022-10-15T07:27:54;14.02;;;8.45;;
62740;SDS011;48790;55.656;37.702;2022-10-15T07:30:20;26.60;;;8.18;;
62740;SDS011;48790;55.656;37.702;2022-10-15T07:32:49;27.05;;;8.80;;
62740;SDS011;48790;55.656;37.702;2022-10-15T07:35:15;26.83;;;8.80;;
62740;SDS011;48790;55.656;37.702;2022-10-15T07:37:41;35.13;;;7.75;;
62740;SDS011;48790;55.656;37.702;2022-10-15T07:40:08;23.75;;;7.22;;
62740;SDS011;48790;55.656;37.702;2022-10-15T07:42:36;26.58;;;7.05;;
62740;SDS011;48790;55.656;37.702;2022-10-15T07:45:03;26.85;;;8.00;;
62740;SDS011;48790;55.656;37.702;2022-10-15T07:47:29;25.25;;;7.05;;
62740;SDS011;48790;55.656;37.702;2022-10-15T07:49:55;20.50;;;6.78;;
62740;SDS011;48790;55.656;37.702;2022-10-15T07:52:22;26.15;;;7.97;;
62740;SDS011;48790;55.656;37.702;2022-10-15T07:54:48;25.52;;;7.38;;
62740;SDS011;48790;55.656;37.702;2022-10-15T07:57:16;29.70;;;7.47;;
62740;SDS011;48790;55.656;37.702;2022-10-15T07:59:42;27.20;;;7.13;;
62740;SDS011;48790;55.656;37.702;2022-10-15T08:02:15;24.55;;;7.68;;
62740;SDS011;48790;55.656;37.702;2022-10-15T08:04:41;19.35;;;7.00;;
62740;SDS011;48790;55.656;37.702;2022-10-15T08:07:07;31.10;;;7.28;;
62740;SDS011;48790;55.656;37.702;2022-10-15T08:09:34;24.15;;;7.18;;
62740;SDS011;48790;55.656;37.702;2022-10-15T08:12:01;26.45;;;7.43;;
62740;SDS011;48790;55.656;37.702;2022-10-15T08:14:27;22.42;;;8.00;;
62740;SDS011;48790;55.656;37.702;2022-10-15T08:16:53;27.08;;;7.40;;
62740;SDS011;48790;55.656;37.702;2022-10-15T08:19:19;22.90;;;7.63;;
62740;SDS011;48790;55.656;37.702;2022-10-15T08:21:47;24.80;;;7.35;;
62740;SDS011;48790;55.656;37.702;2022-10-15T08:24:14;34.15;;;7.22;;
62740;SDS011;48790;55.656;37.702;2022-10-15T08:26:40;30.25;;;6.90;;
62740;SDS011;48790;55.656;37.702;2022-10-15T08:29:06;16.55;;;6.35;;
62740;SDS011;48790;55.656;37.702;2022-10-15T08:31:32;22.38;;;7.00;;
62740;SDS011;48790;55.656;37.702;2022-10-15T08:33:59;25.45;;;6.55;;
62740;SDS011;48790;55.656;37.702;2022-10-15T08:36:24;19.77;;;6.75;;
62740;SDS011;48790;55.656;37.702;2022-10-15T08:38:50;17.20;;;7.63;;
62740;SDS011;48790;55.656;37.702;2022-10-15T08:41:36;25.35;;;7.97;;
62740;SDS011;48790;55.656;37.702;2022-10-15T08:44:02;20.15;;;6.85;;
62740;SDS011;48790;55.656;37.702;2022-10-15T08:46:39;20.55;;;7.38;;
62740;SDS011;48790;55.656;37.702;2022-10-15T08:49:05;22.15;;;7.43;;
62740;SDS011;48790;55.656;37.702;2022-10-15T08:51:40;25.38;;;7.68;;
62740;SDS011;48790;55.656;37.702;2022-10-15T08:54:09;17.08;;;7.45;;
62740;SDS011;48790;55.656;37.702;2022-10-15T08:56:42;21.15;;;7.47;;
62740;SDS011;48790;55.656;37.702;2022-10-15T09:04:34;28.05;;;7.70;;
62740;SDS011;48790;55.656;37.702;2022-10-15T09:07:06;19.60;;;6.57;;
62740;SDS011;48790;55.656;37.702;2022-10-15T09:14:51;15.75;;;6.72;;
62740;SDS011;48790;55.656;37.702;2022-10-15T09:17:22;15.90;;;7.03;;
62740;SDS011;48790;55.656;37.702;2022-10-15T09:19:51;28.38;;;7.15;;
62740;SDS011;48790;55.656;37.702;2022-10-15T09:22:18;19.23;;;7.90;;
62740;SDS011;48790;55.656;37.702;2022-10-15T09:24:47;29.25;;;8.93;;
62740;SDS011;48790;55.656;37.702;2022-10-15T09:34:48;16.77;;;9.07;;
62740;SDS011;48790;55.656;37.702;2022-10-15T09:37:18;21.73;;;7.93;;
62740;SDS011;48790;55.656;37.702;2022-10-15T09:42:37;20.90;;;7.85;;
62740;SDS011;48790;55.656;37.702;2022-10-15T09:45:04;22.65;;;7.63;;
62740;SDS011;48790;55.656;37.702;2022-10-15T09:47:32;19.98;;;7.45;;
62740;SDS011;48790;55.656;37.702;2022-10-15T09:50:06;21.58;;;7.45;;
62740;SDS011;48790;55.656;37.702;2022-10-15T09:58:04;19.00;;;7.40;;
62740;SDS011;48790;55.656;37.702;2022-10-15T10:00:50;18.92;;;8.05;;
62740;SDS011;48790;55.656;37.702;2022-10-15T10:03:17;18.40;;;7.78;;
62740;SDS011;48790;55.656;37.702;2022-10-15T10:05:43;17.38;;;7.85;;
62740;SDS011;48790;55.656;37.702;2022-10-15T10:08:19;15.50;;;8.25;;
62740;SDS011;48790;55.656;37.702;2022-10-15T10:10:52;33.65;;;9.70;;
62740;SDS011;48790;55.656;37.702;2022-10-15T10:13:24;88.60;;;12.13;;
62740;SDS011;48790;55.656;37.702;2022-10-15T10:15:52;64.35;;;10.00;;
62740;SDS011;48790;55.656;37.702;2022-10-15T10:18:22;167.57;;;20.10;;
62740;SDS011;48790;55.656;37.702;2022-10-15T10:20:55;81.50;;;11.00;;
62740;SDS011;48790;55.656;37.702;2022-10-15T10:23:24;22.52;;;8.55;;
62740;SDS011;48790;55.656;37.702;2022-10-15T10:25:51;16.77;;;7.70;;
62740;SDS011;48790;55.656;37.702;2022-10-15T10:28:23;20.33;;;8.20;;
62740;SDS011;48790;55.656;37.702;2022-10-15T10:31:12;22.55;;;9.07;;
62740;SDS011;48790;55.656;37.702;2022-10-15T10:33:42;18.67;;;8.05;;
62740;SDS011;48790;55.656;37.702;2022-10-15T10:47:02;17.00;;;8.02;;
62740;SDS011;48790;55.656;37.702;2022-10-15T10:49:32;17.58;;;9.15;;
62740;SDS011;48790;55.656;37.702;2022-10-15T10:51:59;20.33;;;9.07;;
62740;SDS011;48790;55.656;37.702;2022-10-15T10:54:25;23.17;;;8.90;;
62740;SDS011;48790;55.656;37.702;2022-10-15T10:56:52;18.33;;;8.27;;
62740;SDS011;48790;55.656;37.702;2022-10-15T11:01:55;23.27;;;8.68;;
62740;SDS011;48790;55.656;37.702;2022-10-15T11:04:25;20.00;;;8.55;;
62740;SDS011;48790;55.656;37.702;2022-10-15T11:14:22;22.88;;;9.00;;
62740;SDS011;48790;55.656;37.702;2022-10-15T11:19:30;30.52;;;9.15;;
62740;SDS011;48790;55.656;37.702;2022-10-15T11:30:01;28.73;;;9.27;;
62740;SDS011;48790;55.656;37.702;2022-10-15T11:35:30;26.42;;;9.35;;
62740;SDS011;48790;55.656;37.702;2022-10-15T11:46:21;27.27;;;8.57;;
62740;SDS011;48790;55.656;37.702;2022-10-15T11:51:09;22.55;;;7.65;;
62740;SDS011;48790;55.656;37.702;2022-10-15T11:56:22;26.17;;;8.68;;
62740;SDS011;48790;55.656;37.702;2022-10-15T11:58:56;24.23;;;8.43;;
62740;SDS011;48790;55.656;37.702;2022-10-15T12:04:09;22.35;;;8.65;;
62740;SDS011;48790;55.656;37.702;2022-10-15T12:06:39;18.75;;;8.00;;
62740;SDS011;48790;55.656;37.702;2022-10-15T12:09:07;27.15;;;8.38;;
62740;SDS011;48790;55.656;37.702;2022-10-15T12:14:15;19.88;;;8.80;;
62740;SDS011;48790;55.656;37.702;2022-10-15T12:16:55;30.63;;;9.48;;
62740;SDS011;48790;55.656;37.702;2022-10-15T12:19:27;25.77;;;8.27;;
62740;SDS011;48790;55.656;37.702;2022-10-15T12:32:22;29.08;;;9.25;;
62740;SDS011;48790;55.656;37.702;2022-10-15T12:34:56;32.38;;;10.85;;
62740;SDS011;48790;55.656;37.702;2022-10-15T12:37:24;23.40;;;9.38;;
62740;SDS011;48790;55.656;37.702;2022-10-15T12:39:56;26.63;;;9.05;;
62740;SDS011;48790;55.656;37.702;2022-10-15T12:44:49;22.85;;;8.15;;
62740;SDS011;48790;55.656;37.702;2022-10-15T12:50:04;23.42;;;8.30;;
62740;SDS011;48790;55.656;37.702;2022-10-15T12:52:54;19.60;;;7.72;;
62740;SDS011;48790;55.656;37.702;2022-10-15T12:55:24;23.85;;;7.25;;
62740;SDS011;48790;55.656;37.702;2022-10-15T12:57:53;21.58;;;8.52;;
62740;SDS011;48790;55.656;37.702;2022-10-15T13:00:30;20.17;;;8.45;;
62740;SDS011;48790;55.656;37.702;2022-10-15T13:02:56;27.08;;;9.18;;
62740;SDS011;48790;55.656;37.702;2022-10-15T13:05:28;27.30;;;8.35;;
62740;SDS011;48790;55.656;37.702;2022-10-15T13:07:54;19.67;;;7.35;;
62740;SDS011;48790;55.656;37.702;2022-10-15T13:10:23;30.50;;;8.35;;
62740;SDS011;48790;55.656;37.702;2022-10-15T13:12:52;20.27;;;7.63;;
62740;SDS011;48790;55.656;37.702;2022-10-15T13:15:22;17.38;;;7.25;;
62740;SDS011;48790;55.656;37.702;2022-10-15T13:17:51;18.40;;;6.97;;
62740;SDS011;48790;55.656;37.702;2022-10-15T13:23:16;18.05;;;7.53;;
62740;SDS011;48790;55.656;37.702;2022-10-15T13:30:52;20.65;;;7.82;;
62740;SDS011;48790;55.656;37.702;2022-10-15T13:33:18;19.15;;;7.60;;
62740;SDS011;48790;55.656;37.702;2022-10-15T13:35:43;16.85;;;7.07;;
62740;SDS011;48790;55.656;37.702;2022-10-15T13:38:20;16.50;;;7.45;;
62740;SDS011;48790;55.656;37.702;2022-10-15T13:40:49;19.67;;;7.10;;
62740;SDS011;48790;55.656;37.702;2022-10-15T13:43:21;18.33;;;7.07;;
62740;SDS011;48790;55.656;37.702;2022-10-15T13:45:57;23.38;;;7.63;;
62740;SDS011;48790;55.656;37.702;2022-10-15T13:48:26;22.40;;;7.93;;
62740;SDS011;48790;55.656;37.702;2022-10-15T13:50:52;23.48;;;8.20;;
62740;SDS011;48790;55.656;37.702;2022-10-15T13:53:21;25.92;;;8.07;;
62740;SDS011;48790;55.656;37.702;2022-10-15T13:55:48;21.15;;;8.38;;
62740;SDS011;48790;55.656;37.702;2022-10-15T13:58:32;21.02;;;8.40;;
62740;SDS011;48790;55.656;37.702;2022-10-15T14:00:59;25.73;;;8.38;;
62740;SDS011;48790;55.656;37.702;2022-10-15T14:03:27;21.00;;;8.68;;
62740;SDS011;48790;55.656;37.702;2022-10-15T14:05:54;25.48;;;8.07;;
62740;SDS011;48790;55.656;37.702;2022-10-15T14:08:31;21.67;;;8.45;;
62740;SDS011;48790;55.656;37.702;2022-10-15T14:10:57;24.73;;;8.95;;
62740;SDS011;48790;55.656;37.702;2022-10-15T14:13:25;29.75;;;8.15;;
62740;SDS011;48790;55.656;37.702;2022-10-15T14:18:43;24.58;;;9.20;;
62740;SDS011;48790;55.656;37.702;2022-10-15T14:21:11;20.33;;;8.35;;
62740;SDS011;48790;55.656;37.702;2022-10-15T14:23:37;25.23;;;9.10;;
62740;SDS011;48790;55.656;37.702;2022-10-15T14:26:03;18.10;;;8.90;;
62740;SDS011;48790;55.656;37.702;2022-10-15T14:28:30;19.85;;;8.50;;
62740;SDS011;48790;55.656;37.702;2022-10-15T14:30:57;20.70;;;7.90;;
62740;SDS011;48790;55.656;37.702;2022-10-15T14:38:35;25.98;;;8.75;;
62740;SDS011;48790;55.656;37.702;2022-10-15T14:41:02;18.30;;;8.77;;
62740;SDS011;48790;55.656;37.702;2022-10-15T14:43:34;22.38;;;9.32;;
62740;SDS011;48790;55.656;37.702;2022-10-15T14:46:02;20.42;;;9.25;;
62740;SDS011;48790;55.656;37.702;2022-10-15T14:50:58;24.65;;;9.48;;
62740;SDS011;48790;55.656;37.702;2022-10-15T14:53:28;22.35;;;9.75;;
62740;SDS011;48790;55.656;37.702;2022-10-15T14:55:56;27.77;;;8.80;;
62740;SDS011;48790;55.656;37.702;2022-10-15T14:58:23;34.78;;;10.27;;
62740;SDS011;48790;55.656;37.702;2022-10-15T15:00:56;25.75;;;9.23;;
62740;SDS011;48790;55.656;37.702;2022-10-15T15:03:27;21.85;;;9.07;;
62740;SDS011;48790;55.656;37.702;2022-10-15T15:05:54;34.60;;;10.00;;
62740;SDS011;48790;55.656;37.702;2022-10-15T15:08:21;20.98;;;9.43;;
62740;SDS011;48790;55.656;37.702;2022-10-15T15:10:48;30.65;;;10.05;;
62740;SDS011;48790;55.656;37.702;2022-10-15T15:13:19;32.03;;;9.80;;
62740;SDS011;48790;55.656;37.702;2022-10-15T15:15:45;24.85;;;9.77;;
62740;SDS011;48790;55.656;37.702;2022-10-15T15:18:12;26.98;;;9.95;;
62740;SDS011;48790;55.656;37.702;2022-10-15T15:20:39;28.92;;;10.82;;
62740;SDS011;48790;55.656;37.702;2022-10-15T15:23:06;29.20;;;11.05;;
62740;SDS011;48790;55.656;37.702;2022-10-15T15:25:35;42.60;;;11.25;;
62740;SDS011;48790;55.656;37.702;2022-10-15T15:28:01;30.30;;;11.27;;
62740;SDS011;48790;55.656;37.702;2022-10-15T15:30:29;23.88;;;12.05;;
62740;SDS011;48790;55.656;37.702;2022-10-15T15:32:56;34.33;;;11.90;;
62740;SDS011;48790;55.656;37.702;2022-10-15T15:35:23;24.67;;;11.43;;
62740;SDS011;48790;55.656;37.702;2022-10-15T15:37:50;28.02;;;12.77;;
62740;SDS011;48790;55.656;37.702;2022-10-15T15:40:17;25.15;;;11.35;;
62740;SDS011;48790;55.656;37.702;2022-10-15T15:42:44;32.65;;;12.57;;
62740;SDS011;48790;55.656;37.702;2022-10-15T15:45:29;25.35;;;11.32;;
62740;SDS011;48790;55.656;37.702;2022-10-15T15:47:55;33.33;;;11.95;;
62740;SDS011;48790;55.656;37.702;2022-10-15T15:50:23;27.23;;;12.23;;
62740;SDS011;48790;55.656;37.702;2022-10-15T15:52:49;32.30;;;11.88;;
62740;SDS011;48790;55.656;37.702;2022-10-15T15:55:16;36.05;;;12.23;;
62740;SDS011;48790;55.656;37.702;2022-10-15T15:57:43;26.42;;;11.68;;
62740;SDS011;48790;55.656;37.702;2022-10-15T16:00:10;31.83;;;11.80;;
62740;SDS011;48790;55.656;37.702;2022-10-15T16:02:36;33.50;;;11.63;;
62740;SDS011;48790;55.656;37.702;2022-10-15T16:05:04;35.80;;;11.75;;
62740;SDS011;48790;55.656;37.702;2022-10-15T16:07:30;30.55;;;11.80;;
62740;SDS011;48790;55.656;37.702;2022-10-15T16:09:56;34.15;;;12.18;;
62740;SDS011;48790;55.656;37.702;2022-10-15T16:12:22;29.48;;;12.10;;
62740;SDS011;48790;55.656;37.702;2022-10-15T16:14:48;27.17;;;12.38;;
62740;SDS011;48790;55.656;37.702;2022-10-15T16:17:15;34.13;;;12.18;;
62740;SDS011;48790;55.656;37.702;2022-10-15T16:19:41;39.08;;;11.85;;
62740;SDS011;48790;55.656;37.702;2022-10-15T16:22:07;43.38;;;11.85;;
62740;SDS011;48790;55.656;37.702;2022-10-15T16:24:33;44.92;;;11.05;;
62740;SDS011;48790;55.656;37.702;2022-10-15T16:27:00;39.47;;;12.65;;
62740;SDS011;48790;55.656;37.702;2022-10-15T16:29:26;32.22;;;11.95;;
62740;SDS011;48790;55.656;37.702;2022-10-15T16:31:52;51.38;;;13.00;;
62740;SDS011;48790;55.656;37.702;2022-10-15T16:34:20;43.97;;;12.88;;
62740;SDS011;48790;55.656;37.702;2022-10-15T16:36:46;45.60;;;12.18;;
62740;SDS011;48790;55.656;37.702;2022-10-15T16:39:12;51.28;;;13.63;;
62740;SDS011;48790;55.656;37.702;2022-10-15T16:41:39;42.50;;;15.30;;
62740;SDS011;48790;55.656;37.702;2022-10-15T16:44:05;51.15;;;13.85;;
62740;SDS011;48790;55.656;37.702;2022-10-15T16:46:32;49.25;;;14.48;;
62740;SDS011;48790;55.656;37.702;2022-10-15T16:48:58;40.92;;;13.98;;
62740;SDS011;48790;55.656;37.702;2022-10-15T16:51:24;41.85;;;14.18;;
62740;SDS011;48790;55.656;37.702;2022-10-15T16:53:50;38.58;;;12.80;;